KKP59 YBMK-YBBN
Flight info
| Callsign | KKP59 |
|---|---|
| Flight time | 1h 13m |
| Altitude | 33000 |
| Route | MK V153 MUNAR Y61 RUROX Y177 BN |
| Aircraft | A321/M-SDE3FGHIRWY/LB1 |
Departure
| Time | 2026-04-25 05:57 |
|---|---|
| Airport | Mackay Airport (YBMK) |
Arrival
| Time | 2026-04-25 07:10 |
|---|---|
| Airport | Brisbane International Airport (YBBN) |
| Time | Latitude | Longitude | Altitude | Speed | Heading |
|---|---|---|---|---|---|
| 2026-04-25 05:43 | -21.17522 | 149.18218 | 28 ft | 0 kts | 288° |
| 2026-04-25 05:52 | -21.17517 | 149.18213 | 27 ft | 3 kts | 311° |
| 2026-04-25 05:52 | -21.17497 | 149.18213 | 27 ft | 6 kts | 13° |
| 2026-04-25 05:52 | -21.17405 | 149.18319 | 25 ft | 22 kts | 56° |
| 2026-04-25 05:53 | -21.17383 | 149.18356 | 24 ft | 1 kts | 57° |
| 2026-04-25 05:53 | -21.17380 | 149.18361 | 24 ft | 0 kts | 57° |
| 2026-04-25 05:53 | -21.17379 | 149.18362 | 24 ft | 2 kts | 57° |
| 2026-04-25 05:53 | -21.17332 | 149.18413 | 27 ft | 13 kts | 20° |
| 2026-04-25 05:54 | -21.17255 | 149.18379 | 27 ft | 13 kts | 326° |
| 2026-04-25 05:54 | -21.17179 | 149.18325 | 27 ft | 14 kts | 326° |
| 2026-04-25 05:54 | -21.17014 | 149.18208 | 27 ft | 17 kts | 327° |
| 2026-04-25 05:55 | -21.16871 | 149.18113 | 24 ft | 31 kts | 329° |
| 2026-04-25 05:55 | -21.16677 | 149.17986 | 25 ft | 32 kts | 328° |
| 2026-04-25 05:55 | -21.16488 | 149.17860 | 24 ft | 32 kts | 328° |
| 2026-04-25 05:55 | -21.16372 | 149.17746 | 25 ft | 8 kts | 313° |
| 2026-04-25 05:56 | -21.16346 | 149.17754 | 27 ft | 3 kts | 74° |
| 2026-04-25 05:56 | -21.16364 | 149.17776 | 29 ft | 9 kts | 143° |
| 2026-04-25 05:56 | -21.16509 | 149.17873 | 24 ft | 56 kts | 148° |
| 2026-04-25 05:56 | -21.17034 | 149.18229 | 29 ft | 120 kts | 148° |
| 2026-04-25 05:57 | -21.17871 | 149.18799 | 183 ft | 154 kts | 146° |
| 2026-04-25 05:57 | -21.18734 | 149.19378 | 985 ft | 147 kts | 148° |
| 2026-04-25 05:57 | -21.19606 | 149.19967 | 1548 ft | 149 kts | 146° |
| 2026-04-25 05:57 | -21.20517 | 149.20600 | 1748 ft | 165 kts | 147° |
| 2026-04-25 05:58 | -21.21522 | 149.21298 | 1916 ft | 176 kts | 147° |
| 2026-04-25 05:58 | -21.22597 | 149.22043 | 2048 ft | 194 kts | 147° |
| 2026-04-25 05:58 | -21.23879 | 149.22695 | 2166 ft | 217 kts | 166° |
| 2026-04-25 05:58 | -21.25441 | 149.23032 | 2480 ft | 237 kts | 167° |
| 2026-04-25 05:59 | -21.27075 | 149.23391 | 3115 ft | 242 kts | 167° |
| 2026-04-25 05:59 | -21.28738 | 149.23759 | 3801 ft | 246 kts | 167° |
| 2026-04-25 05:59 | -21.30423 | 149.24131 | 4503 ft | 249 kts | 167° |
| 2026-04-25 05:59 | -21.32111 | 149.24505 | 5178 ft | 252 kts | 167° |
| 2026-04-25 06:00 | -21.33840 | 149.24888 | 5856 ft | 255 kts | 167° |
| 2026-04-25 06:00 | -21.35597 | 149.25275 | 6522 ft | 259 kts | 167° |
| 2026-04-25 06:00 | -21.37375 | 149.25666 | 7156 ft | 262 kts | 167° |
| 2026-04-25 06:00 | -21.39164 | 149.26060 | 7847 ft | 264 kts | 167° |
| 2026-04-25 06:01 | -21.40363 | 149.26323 | 8255 ft | 266 kts | 167° |
| 2026-04-25 06:01 | -21.42812 | 149.26861 | 9119 ft | 270 kts | 167° |
| 2026-04-25 06:01 | -21.44663 | 149.27270 | 9758 ft | 273 kts | 167° |
| 2026-04-25 06:01 | -21.46540 | 149.27684 | 10282 ft | 281 kts | 167° |
| 2026-04-25 06:02 | -21.48529 | 149.28124 | 10408 ft | 302 kts | 167° |
| 2026-04-25 06:02 | -21.50613 | 149.28755 | 10533 ft | 321 kts | 158° |
| 2026-04-25 06:02 | -21.52727 | 149.29644 | 10663 ft | 339 kts | 158° |
| 2026-04-25 06:02 | -21.54978 | 149.30595 | 10801 ft | 355 kts | 158° |
| 2026-04-25 06:03 | -21.57308 | 149.31577 | 11180 ft | 363 kts | 158° |
| 2026-04-25 06:03 | -21.59672 | 149.32571 | 11726 ft | 366 kts | 158° |
| 2026-04-25 06:03 | -21.62056 | 149.33573 | 12285 ft | 369 kts | 158° |
| 2026-04-25 06:03 | -21.64463 | 149.34583 | 12839 ft | 372 kts | 158° |
| 2026-04-25 06:04 | -21.66888 | 149.35601 | 13428 ft | 375 kts | 159° |
| 2026-04-25 06:04 | -21.68507 | 149.36281 | 13814 ft | 377 kts | 159° |
| 2026-04-25 06:04 | -21.71792 | 149.37662 | 14500 ft | 381 kts | 159° |
| 2026-04-25 06:04 | -21.74269 | 149.38702 | 15006 ft | 384 kts | 159° |
| 2026-04-25 06:05 | -21.76743 | 149.39741 | 15514 ft | 387 kts | 160° |
| 2026-04-25 06:05 | -21.79260 | 149.40801 | 16018 ft | 390 kts | 160° |
| 2026-04-25 06:05 | -21.81793 | 149.41867 | 16526 ft | 393 kts | 160° |
| 2026-04-25 06:05 | -21.83485 | 149.42577 | 16858 ft | 395 kts | 160° |
| 2026-04-25 06:06 | -21.86921 | 149.44022 | 17495 ft | 399 kts | 160° |
| 2026-04-25 06:06 | -21.89514 | 149.45113 | 17974 ft | 401 kts | 160° |
| 2026-04-25 06:06 | -21.92125 | 149.46215 | 18428 ft | 404 kts | 160° |
| 2026-04-25 06:06 | -21.93861 | 149.46949 | 18681 ft | 406 kts | 161° |
| 2026-04-25 06:07 | -21.96500 | 149.48065 | 19047 ft | 408 kts | 161° |
| 2026-04-25 06:07 | -22.00058 | 149.49568 | 19550 ft | 412 kts | 161° |
| 2026-04-25 06:07 | -22.01828 | 149.50314 | 19785 ft | 414 kts | 161° |
| 2026-04-25 06:07 | -22.05392 | 149.51821 | 20261 ft | 417 kts | 161° |
| 2026-04-25 06:08 | -22.08107 | 149.52970 | 20618 ft | 420 kts | 161° |
| 2026-04-25 06:08 | -22.10839 | 149.54125 | 20971 ft | 423 kts | 161° |
| 2026-04-25 06:08 | -22.13582 | 149.55286 | 21314 ft | 425 kts | 162° |
| 2026-04-25 06:08 | -22.15450 | 149.56076 | 21543 ft | 427 kts | 162° |
| 2026-04-25 06:09 | -22.18225 | 149.57249 | 21877 ft | 430 kts | 162° |
| 2026-04-25 06:09 | -22.20981 | 149.58411 | 22213 ft | 432 kts | 162° |
| 2026-04-25 06:09 | -22.23786 | 149.59600 | 22580 ft | 434 kts | 162° |
| 2026-04-25 06:09 | -22.26608 | 149.60798 | 22929 ft | 436 kts | 162° |
| 2026-04-25 06:10 | -22.29439 | 149.62000 | 23247 ft | 439 kts | 162° |
| 2026-04-25 06:10 | -22.32291 | 149.63210 | 23565 ft | 442 kts | 163° |
| 2026-04-25 06:10 | -22.35161 | 149.64425 | 23841 ft | 444 kts | 163° |
| 2026-04-25 06:10 | -22.38041 | 149.65648 | 24109 ft | 446 kts | 163° |
| 2026-04-25 06:11 | -22.40932 | 149.66882 | 24385 ft | 448 kts | 163° |
| 2026-04-25 06:11 | -22.43839 | 149.68121 | 24655 ft | 449 kts | 163° |
| 2026-04-25 06:11 | -22.46758 | 149.69360 | 24922 ft | 451 kts | 163° |
| 2026-04-25 06:11 | -22.49645 | 149.70587 | 25198 ft | 452 kts | 163° |
| 2026-04-25 06:12 | -22.52581 | 149.71836 | 25499 ft | 454 kts | 163° |
| 2026-04-25 06:12 | -22.55526 | 149.73093 | 25813 ft | 454 kts | 163° |
| 2026-04-25 06:12 | -22.58472 | 149.74348 | 26107 ft | 455 kts | 163° |
| 2026-04-25 06:12 | -22.61419 | 149.75604 | 26485 ft | 454 kts | 163° |
| 2026-04-25 06:13 | -22.64355 | 149.76859 | 26875 ft | 453 kts | 163° |
| 2026-04-25 06:13 | -22.67286 | 149.78113 | 27241 ft | 452 kts | 164° |
| 2026-04-25 06:13 | -22.70207 | 149.79361 | 27612 ft | 451 kts | 164° |
| 2026-04-25 06:14 | -22.76031 | 149.81845 | 28363 ft | 449 kts | 164° |
| 2026-04-25 06:14 | -22.78938 | 149.83089 | 28725 ft | 449 kts | 164° |
| 2026-04-25 06:14 | -22.81806 | 149.84317 | 29087 ft | 448 kts | 164° |
| 2026-04-25 06:14 | -22.84699 | 149.85552 | 29507 ft | 446 kts | 165° |
| 2026-04-25 06:15 | -22.87582 | 149.86780 | 29899 ft | 444 kts | 165° |
| 2026-04-25 06:15 | -22.90457 | 149.88005 | 30262 ft | 443 kts | 165° |
| 2026-04-25 06:15 | -22.93330 | 149.89232 | 30533 ft | 444 kts | 164° |
| 2026-04-25 06:15 | -22.96198 | 149.90465 | 30855 ft | 442 kts | 165° |
| 2026-04-25 06:16 | -22.99051 | 149.91691 | 31190 ft | 440 kts | 165° |
| 2026-04-25 06:16 | -23.01893 | 149.92910 | 31513 ft | 438 kts | 165° |
| 2026-04-25 06:16 | -23.04729 | 149.94131 | 31834 ft | 437 kts | 165° |
| 2026-04-25 06:16 | -23.07546 | 149.95343 | 32152 ft | 435 kts | 165° |
| 2026-04-25 06:17 | -23.10358 | 149.96554 | 32465 ft | 434 kts | 165° |
| 2026-04-25 06:17 | -23.13122 | 149.97746 | 32792 ft | 432 kts | 165° |
| 2026-04-25 06:17 | -23.15914 | 149.98950 | 33068 ft | 431 kts | 165° |
| 2026-04-25 06:18 | -23.21501 | 150.01345 | 33133 ft | 432 kts | 166° |
| 2026-04-25 06:18 | -23.27085 | 150.03745 | 33135 ft | 431 kts | 165° |
| 2026-04-25 06:19 | -23.32669 | 150.06152 | 33134 ft | 432 kts | 165° |
| 2026-04-25 06:19 | -23.38255 | 150.08560 | 33128 ft | 432 kts | 165° |
| 2026-04-25 06:20 | -23.43842 | 150.10973 | 33148 ft | 432 kts | 165° |
| 2026-04-25 06:20 | -23.49405 | 150.13373 | 33150 ft | 433 kts | 165° |
| 2026-04-25 06:21 | -23.55002 | 150.15799 | 33149 ft | 433 kts | 165° |
| 2026-04-25 06:21 | -23.60600 | 150.18227 | 33167 ft | 433 kts | 165° |
| 2026-04-25 06:22 | -23.66194 | 150.20654 | 33164 ft | 433 kts | 165° |
| 2026-04-25 06:22 | -23.71799 | 150.23086 | 33158 ft | 433 kts | 165° |
| 2026-04-25 06:23 | -23.77400 | 150.25509 | 33171 ft | 433 kts | 165° |
| 2026-04-25 06:23 | -23.82996 | 150.27942 | 33164 ft | 433 kts | 165° |
| 2026-04-25 06:24 | -23.88551 | 150.30365 | 33167 ft | 433 kts | 165° |
| 2026-04-25 06:24 | -23.94146 | 150.32800 | 33166 ft | 433 kts | 165° |
| 2026-04-25 06:25 | -23.99738 | 150.35239 | 33171 ft | 433 kts | 165° |
| 2026-04-25 06:25 | -24.05342 | 150.37686 | 33181 ft | 433 kts | 165° |
| 2026-04-25 06:26 | -24.10897 | 150.40108 | 33180 ft | 432 kts | 165° |
| 2026-04-25 06:26 | -24.16483 | 150.42544 | 33176 ft | 432 kts | 165° |
| 2026-04-25 06:27 | -24.22075 | 150.44988 | 33173 ft | 432 kts | 165° |
| 2026-04-25 06:27 | -24.27663 | 150.47439 | 33200 ft | 432 kts | 164° |
| 2026-04-25 06:28 | -24.33237 | 150.49884 | 33190 ft | 432 kts | 164° |
| 2026-04-25 06:28 | -24.38813 | 150.52335 | 33209 ft | 431 kts | 164° |
| 2026-04-25 06:29 | -24.44332 | 150.54758 | 33205 ft | 429 kts | 164° |
| 2026-04-25 06:29 | -24.49838 | 150.57345 | 33203 ft | 434 kts | 156° |
| 2026-04-25 06:30 | -24.54932 | 150.60993 | 33196 ft | 438 kts | 153° |
| 2026-04-25 06:30 | -24.60004 | 150.64712 | 33199 ft | 438 kts | 153° |
| 2026-04-25 06:31 | -24.65075 | 150.68414 | 33202 ft | 437 kts | 153° |
| 2026-04-25 06:31 | -24.70151 | 150.72112 | 33201 ft | 437 kts | 153° |
| 2026-04-25 06:32 | -24.75191 | 150.75792 | 33237 ft | 437 kts | 152° |
| 2026-04-25 06:32 | -24.80252 | 150.79509 | 33224 ft | 437 kts | 152° |
| 2026-04-25 06:33 | -24.85312 | 150.83217 | 33223 ft | 437 kts | 153° |
| 2026-04-25 06:33 | -24.90374 | 150.86921 | 33202 ft | 436 kts | 153° |
| 2026-04-25 06:34 | -24.95428 | 150.90622 | 33209 ft | 436 kts | 153° |
| 2026-04-25 06:34 | -25.00483 | 150.94337 | 33226 ft | 436 kts | 152° |
| 2026-04-25 06:35 | -25.05526 | 150.98054 | 33225 ft | 435 kts | 152° |
| 2026-04-25 06:35 | -25.10560 | 151.01764 | 33224 ft | 435 kts | 152° |
| 2026-04-25 06:36 | -25.15591 | 151.05474 | 33243 ft | 434 kts | 152° |
| 2026-04-25 06:36 | -25.20583 | 151.09155 | 33231 ft | 434 kts | 152° |
| 2026-04-25 06:37 | -25.25599 | 151.12862 | 33227 ft | 433 kts | 152° |
| 2026-04-25 06:37 | -25.30603 | 151.16566 | 33230 ft | 433 kts | 152° |
| 2026-04-25 06:38 | -25.35600 | 151.20264 | 33240 ft | 432 kts | 152° |
| 2026-04-25 06:38 | -25.40599 | 151.23958 | 33237 ft | 431 kts | 152° |
| 2026-04-25 06:39 | -25.45580 | 151.27660 | 33233 ft | 431 kts | 152° |
| 2026-04-25 06:39 | -25.50553 | 151.31354 | 33233 ft | 430 kts | 152° |
| 2026-04-25 06:40 | -25.55495 | 151.35021 | 33242 ft | 430 kts | 152° |
| 2026-04-25 06:40 | -25.60457 | 151.38714 | 33234 ft | 429 kts | 152° |
| 2026-04-25 06:41 | -25.65427 | 151.42416 | 33247 ft | 429 kts | 152° |
| 2026-04-25 06:41 | -25.70387 | 151.46109 | 33245 ft | 429 kts | 152° |
| 2026-04-25 06:42 | -25.75241 | 151.49922 | 33238 ft | 434 kts | 144° |
| 2026-04-25 06:42 | -25.79750 | 151.54403 | 33241 ft | 435 kts | 144° |
| 2026-04-25 06:43 | -25.84263 | 151.58890 | 33243 ft | 435 kts | 144° |
| 2026-04-25 06:43 | -25.88776 | 151.63366 | 33275 ft | 435 kts | 143° |
| 2026-04-25 06:44 | -25.93290 | 151.67852 | 33265 ft | 436 kts | 143° |
| 2026-04-25 06:44 | -25.97803 | 151.72347 | 33259 ft | 436 kts | 143° |
| 2026-04-25 06:45 | -26.02311 | 151.76846 | 33268 ft | 435 kts | 143° |
| 2026-04-25 06:45 | -26.06817 | 151.81342 | 33269 ft | 435 kts | 143° |
| 2026-04-25 06:46 | -26.11319 | 151.85834 | 33269 ft | 435 kts | 143° |
| 2026-04-25 06:46 | -26.15821 | 151.90344 | 33267 ft | 435 kts | 143° |
| 2026-04-25 06:47 | -26.20289 | 151.94818 | 33292 ft | 435 kts | 142° |
| 2026-04-25 06:47 | -26.24794 | 151.99332 | 33265 ft | 436 kts | 142° |
| 2026-04-25 06:47 | -26.27049 | 152.01594 | 32661 ft | 438 kts | 142° |
| 2026-04-25 06:48 | -26.29322 | 152.03872 | 31501 ft | 437 kts | 141° |
| 2026-04-25 06:48 | -26.31567 | 152.06128 | 30706 ft | 435 kts | 140° |
| 2026-04-25 06:48 | -26.33829 | 152.08401 | 29794 ft | 441 kts | 139° |
| 2026-04-25 06:48 | -26.36115 | 152.10699 | 28911 ft | 443 kts | 141° |
| 2026-04-25 06:49 | -26.38417 | 152.13015 | 27938 ft | 448 kts | 140° |
| 2026-04-25 06:49 | -26.40746 | 152.15357 | 26970 ft | 453 kts | 139° |
| 2026-04-25 06:49 | -26.43099 | 152.17726 | 25970 ft | 457 kts | 139° |
| 2026-04-25 06:49 | -26.45476 | 152.20120 | 24979 ft | 462 kts | 139° |
| 2026-04-25 06:50 | -26.47870 | 152.22536 | 24035 ft | 466 kts | 139° |
| 2026-04-25 06:50 | -26.50276 | 152.24966 | 23134 ft | 465 kts | 139° |
| 2026-04-25 06:50 | -26.52661 | 152.27374 | 22387 ft | 460 kts | 139° |
| 2026-04-25 06:50 | -26.55020 | 152.29756 | 21623 ft | 455 kts | 139° |
| 2026-04-25 06:51 | -26.57348 | 152.32109 | 20915 ft | 448 kts | 138° |
| 2026-04-25 06:51 | -26.59645 | 152.34437 | 20181 ft | 443 kts | 139° |
| 2026-04-25 06:51 | -26.61897 | 152.36716 | 19414 ft | 430 kts | 139° |
| 2026-04-25 06:51 | -26.64049 | 152.38896 | 18726 ft | 420 kts | 138° |
| 2026-04-25 06:52 | -26.66204 | 152.41097 | 18467 ft | 422 kts | 138° |
| 2026-04-25 06:52 | -26.68358 | 152.43315 | 18252 ft | 418 kts | 137° |
| 2026-04-25 06:52 | -26.70484 | 152.45513 | 18269 ft | 415 kts | 137° |
| 2026-04-25 06:52 | -26.72597 | 152.47701 | 17484 ft | 415 kts | 137° |
| 2026-04-25 06:53 | -26.74703 | 152.49883 | 16381 ft | 405 kts | 137° |
| 2026-04-25 06:53 | -26.76755 | 152.52008 | 14914 ft | 398 kts | 136° |
| 2026-04-25 06:53 | -26.78756 | 152.54079 | 14124 ft | 388 kts | 136° |
| 2026-04-25 06:53 | -26.80740 | 152.56131 | 13699 ft | 389 kts | 136° |
| 2026-04-25 06:54 | -26.82721 | 152.58179 | 13472 ft | 386 kts | 136° |
| 2026-04-25 06:54 | -26.84690 | 152.60217 | 13291 ft | 385 kts | 136° |
| 2026-04-25 06:54 | -26.86629 | 152.62226 | 13270 ft | 370 kts | 136° |
| 2026-04-25 06:54 | -26.88469 | 152.64131 | 13283 ft | 350 kts | 136° |
| 2026-04-25 06:55 | -26.90207 | 152.65928 | 13244 ft | 331 kts | 136° |
| 2026-04-25 06:55 | -26.91816 | 152.67588 | 13087 ft | 304 kts | 136° |
| 2026-04-25 06:55 | -26.93320 | 152.69137 | 12674 ft | 286 kts | 136° |
| 2026-04-25 06:55 | -26.94765 | 152.70631 | 11991 ft | 279 kts | 135° |
| 2026-04-25 06:56 | -26.96182 | 152.72097 | 11277 ft | 275 kts | 135° |
| 2026-04-25 06:56 | -26.97129 | 152.73076 | 10792 ft | 273 kts | 135° |
| 2026-04-25 06:56 | -26.98950 | 152.74966 | 10451 ft | 267 kts | 132° |
| 2026-04-25 06:56 | -27.00054 | 152.76618 | 10255 ft | 263 kts | 119° |
| 2026-04-25 06:57 | -27.00816 | 152.78485 | 10116 ft | 263 kts | 112° |
| 2026-04-25 06:57 | -27.01516 | 152.80382 | 9978 ft | 263 kts | 113° |
| 2026-04-25 06:57 | -27.02225 | 152.82287 | 9571 ft | 265 kts | 113° |
| 2026-04-25 06:57 | -27.02934 | 152.84184 | 9208 ft | 264 kts | 113° |
| 2026-04-25 06:58 | -27.03634 | 152.86055 | 8852 ft | 263 kts | 113° |
| 2026-04-25 06:58 | -27.04337 | 152.87937 | 8508 ft | 261 kts | 113° |
| 2026-04-25 06:58 | -27.05037 | 152.89818 | 8149 ft | 260 kts | 113° |
| 2026-04-25 06:58 | -27.05725 | 152.91666 | 8001 ft | 254 kts | 113° |
| 2026-04-25 06:59 | -27.06404 | 152.93494 | 8009 ft | 254 kts | 113° |
| 2026-04-25 06:59 | -27.07085 | 152.95328 | 7912 ft | 255 kts | 112° |
| 2026-04-25 06:59 | -27.07582 | 152.97230 | 7386 ft | 253 kts | 104° |
| 2026-04-25 06:59 | -27.07977 | 152.99155 | 6686 ft | 251 kts | 105° |
| 2026-04-25 07:00 | -27.08361 | 153.01021 | 6516 ft | 246 kts | 105° |
| 2026-04-25 07:00 | -27.08750 | 153.02900 | 6361 ft | 248 kts | 105° |
| 2026-04-25 07:00 | -27.09140 | 153.04788 | 6197 ft | 248 kts | 105° |
| 2026-04-25 07:00 | -27.09530 | 153.06669 | 6033 ft | 247 kts | 105° |
| 2026-04-25 07:01 | -27.09914 | 153.08519 | 5871 ft | 245 kts | 105° |
| 2026-04-25 07:01 | -27.10299 | 153.10379 | 5692 ft | 245 kts | 106° |
| 2026-04-25 07:01 | -27.10617 | 153.12259 | 5523 ft | 246 kts | 97° |
| 2026-04-25 07:01 | -27.10677 | 153.14176 | 5347 ft | 243 kts | 96° |
| 2026-04-25 07:02 | -27.10726 | 153.16038 | 5215 ft | 234 kts | 96° |
| 2026-04-25 07:02 | -27.10778 | 153.17842 | 4981 ft | 229 kts | 97° |
| 2026-04-25 07:02 | -27.10927 | 153.19572 | 4855 ft | 214 kts | 107° |
| 2026-04-25 07:02 | -27.11312 | 153.21128 | 4723 ft | 202 kts | 109° |
| 2026-04-25 07:03 | -27.11697 | 153.22627 | 4595 ft | 198 kts | 114° |
| 2026-04-25 07:03 | -27.12423 | 153.23903 | 4468 ft | 194 kts | 136° |
| 2026-04-25 07:03 | -27.13563 | 153.24708 | 4336 ft | 197 kts | 157° |
| 2026-04-25 07:03 | -27.14868 | 153.25201 | 4218 ft | 198 kts | 159° |
| 2026-04-25 07:04 | -27.15768 | 153.25400 | 4133 ft | 202 kts | 174° |
| 2026-04-25 07:04 | -27.17593 | 153.24792 | 3966 ft | 211 kts | 200° |
| 2026-04-25 07:04 | -27.18454 | 153.24294 | 3952 ft | 206 kts | 200° |
| 2026-04-25 07:04 | -27.19646 | 153.23595 | 3983 ft | 182 kts | 200° |
| 2026-04-25 07:05 | -27.20755 | 153.22953 | 3697 ft | 177 kts | 199° |
| 2026-04-25 07:05 | -27.21836 | 153.22336 | 3433 ft | 171 kts | 198° |
| 2026-04-25 07:05 | -27.22877 | 153.21743 | 3198 ft | 165 kts | 198° |
| 2026-04-25 07:05 | -27.23876 | 153.21173 | 3084 ft | 159 kts | 198° |
| 2026-04-25 07:06 | -27.24855 | 153.20617 | 3009 ft | 157 kts | 198° |
| 2026-04-25 07:06 | -27.25828 | 153.20068 | 2717 ft | 153 kts | 197° |
| 2026-04-25 07:06 | -27.26755 | 153.19541 | 2411 ft | 147 kts | 197° |
| 2026-04-25 07:06 | -27.27656 | 153.19029 | 2188 ft | 145 kts | 196° |
| 2026-04-25 07:07 | -27.28551 | 153.18519 | 1986 ft | 144 kts | 197° |
| 2026-04-25 07:07 | -27.29431 | 153.18018 | 1785 ft | 143 kts | 196° |
| 2026-04-25 07:07 | -27.30321 | 153.17511 | 1602 ft | 143 kts | 197° |
| 2026-04-25 07:07 | -27.31208 | 153.17005 | 1404 ft | 143 kts | 198° |
| 2026-04-25 07:08 | -27.32089 | 153.16502 | 1216 ft | 141 kts | 199° |
| 2026-04-25 07:08 | -27.32977 | 153.15996 | 1032 ft | 144 kts | 200° |
| 2026-04-25 07:08 | -27.33878 | 153.15481 | 835 ft | 146 kts | 200° |
| 2026-04-25 07:08 | -27.34781 | 153.14970 | 636 ft | 146 kts | 200° |
| 2026-04-25 07:09 | -27.35690 | 153.14453 | 426 ft | 146 kts | 205° |
| 2026-04-25 07:09 | -27.36582 | 153.13941 | 239 ft | 142 kts | 206° |
| 2026-04-25 07:09 | -27.37463 | 153.13433 | 63 ft | 143 kts | 207° |
| 2026-04-25 07:09 | -27.38278 | 153.12969 | 20 ft | 112 kts | 207° |
| 2026-04-25 07:10 | -27.38816 | 153.12659 | 18 ft | 62 kts | 207° |
| 2026-04-25 07:10 | -27.39095 | 153.12500 | 17 ft | 41 kts | 207° |
| 2026-04-25 07:10 | -27.39339 | 153.12361 | 17 ft | 38 kts | 207° |
| 2026-04-25 07:10 | -27.39538 | 153.12242 | 19 ft | 21 kts | 214° |
| 2026-04-25 07:11 | -27.39570 | 153.12099 | 19 ft | 18 kts | 292° |
| 2026-04-25 07:11 | -27.39565 | 153.12088 | 19 ft | 0 kts | 296° |
| 2026-04-25 07:12 | -27.39561 | 153.12079 | 19 ft | 7 kts | 296° |
| 2026-04-25 07:12 | -27.39477 | 153.11939 | 18 ft | 12 kts | 335° |
| 2026-04-25 07:12 | -27.39397 | 153.11961 | 18 ft | 13 kts | 26° |
| 2026-04-25 07:13 | -27.39314 | 153.12008 | 18 ft | 14 kts | 27° |
| 2026-04-25 07:13 | -27.39226 | 153.12059 | 18 ft | 15 kts | 27° |
| 2026-04-25 07:13 | -27.39131 | 153.12113 | 19 ft | 16 kts | 26° |
| 2026-04-25 07:13 | -27.39035 | 153.12089 | 18 ft | 16 kts | 303° |
| 2026-04-25 07:14 | -27.38975 | 153.11985 | 18 ft | 13 kts | 308° |
| 2026-04-25 07:14 | -27.38909 | 153.11958 | 18 ft | 4 kts | 6° |
| 2026-04-25 07:14 | -27.38908 | 153.11958 | 18 ft | 0 kts | 7° |